Time;durP1;ratioP1;P1;durP2;ratioP2;P2;SDS_P1;SDS_P2;PMS_P1;PMS_P2;Temp;Humidity;BMP_temperature;BMP_pressure;BME280_temperature;BME280_humidity;BME280_pressure;Samples;Min_cycle;Max_cycle;Signal;HPM_P1;HPM_P2
2024/02/27 06:59:22;;;;;;;6.43;4.05;;;;;;;;;;12708294;23;20014;-83
2024/02/27 07:04:29;;;;;;;5.82;4.43;;;;;;;;;;12740769;23;20016;-83
2024/02/27 07:10:04;;;;;;;6.10;4.20;;;;;;;;;;12755564;23;20013;-83
2024/02/27 07:15:56;;;;;;;6.63;5.25;;;;;;;;;;12768481;23;20006;-83
2024/02/27 07:21:17;;;;;;;4.72;3.70;;;;;;;;;;12744228;23;20008;-83
2024/02/27 07:26:49;;;;;;;12.13;8.95;;;;;;;;;;12737983;23;20010;-85
2024/02/27 07:32:22;;;;;;;15.30;11.85;;;;;;;;;;12773184;23;20005;-85
2024/02/27 07:37:23;;;;;;;7.95;6.15;;;;;;;;;;12680620;23;20002;-85
2024/02/27 07:42:26;;;;;;;12.32;10.13;;;;;;;;;;12680783;23;20508;-85
2024/02/27 07:47:28;;;;;;;5.05;4.10;;;;;;;;;;12680098;23;20189;-84
2024/02/27 08:03:46;;;;;;;6.80;5.20;;;;;;;;;;12507042;23;20000;-82
2024/02/27 08:08:47;;;;;;;10.20;7.60;;;;;;;;;;12611906;23;20012;-82
2024/02/27 08:18:56;;;;;;;10.95;8.35;;;;;;;;;;12749841;23;20451;-79
2024/02/27 08:23:57;;;;;;;13.40;9.88;;;;;;;;;;12756128;23;20431;-79
2024/02/27 08:28:58;;;;;;;;;;;;;;;;;;12814595;23;20005;-79
2024/02/27 08:34:04;;;;;;;12.98;10.00;;;;;;;;;;12809217;23;19979;-80
2024/02/27 08:39:05;;;;;;;10.10;8.63;;;;;;;;;;12810816;23;20558;-79
2024/02/27 08:44:06;;;;;;;12.90;9.93;;;;;;;;;;12810929;23;20308;-78
2024/02/27 08:49:07;;;;;;;13.30;9.43;;;;;;;;;;12821490;23;20312;-78
2024/02/27 08:54:08;;;;;;;17.08;13.35;;;;;;;;;;12812043;23;20439;-78
2024/02/27 08:59:10;;;;;;;14.57;11.32;;;;;;;;;;12812751;23;20439;-79
2024/02/27 09:04:11;;;;;;;13.57;10.40;;;;;;;;;;12809934;23;20031;-79
2024/02/27 09:09:12;;;;;;;7.88;6.50;;;;;;;;;;12814939;23;20013;-79
2024/02/27 09:14:13;;;;;;;7.40;5.28;;;;;;;;;;12809941;23;20005;-79
2024/02/27 09:19:14;;;;;;;15.98;12.32;;;;;;;;;;12813185;23;20346;-79
2024/02/27 09:24:15;;;;;;;9.68;7.32;;;;;;;;;;12811537;23;20005;-79
2024/02/27 09:29:16;;;;;;;19.38;14.57;;;;;;;;;;12809528;23;20005;-79
2024/02/27 09:34:18;;;;;;;10.98;8.25;;;;;;;;;;12810787;23;20001;-79
2024/02/27 09:39:19;;;;;;;11.93;9.02;;;;;;;;;;12812414;23;20024;-78
2024/02/27 09:44:20;;;;;;;13.65;10.45;;;;;;;;;;12811740;23;20004;-78
2024/02/27 09:49:22;;;;;;;13.70;11.27;;;;;;;;;;12812669;23;20419;-78
2024/02/27 09:54:24;;;;;;;10.07;6.78;;;;;;;;;;12811353;23;20424;-79
2024/02/27 09:59:25;;;;;;;15.82;11.32;;;;;;;;;;12822935;23;20014;-77
2024/02/27 10:04:27;;;;;;;13.85;10.70;;;;;;;;;;12822999;23;20009;-79
2024/02/27 10:09:28;;;;;;;8.27;6.55;;;;;;;;;;12807781;23;20383;-79
2024/02/27 10:14:33;;;;;;;16.00;12.50;;;;;;;;;;12809473;23;20072;-79
2024/02/27 10:19:35;;;;;;;16.80;13.10;;;;;;;;;;12811599;23;20012;-79
2024/02/27 10:24:36;;;;;;;10.95;8.23;;;;;;;;;;12811506;23;20016;-79
2024/02/27 10:29:38;;;;;;;13.15;9.88;;;;;;;;;;12812797;23;20496;-80
2024/02/27 10:34:43;;;;;;;7.13;5.63;;;;;;;;;;12812133;23;20079;-79
2024/02/27 10:39:44;;;;;;;5.90;4.43;;;;;;;;;;12812503;23;20001;-79
2024/02/27 10:44:45;;;;;;;12.68;9.45;;;;;;;;;;12809848;23;20055;-79
2024/02/27 10:49:47;;;;;;;6.68;4.47;;;;;;;;;;12809977;23;20110;-78
2024/02/27 10:54:50;;;;;;;9.05;7.13;;;;;;;;;;12810903;23;20002;-79
2024/02/27 10:59:52;;;;;;;9.52;7.45;;;;;;;;;;12808054;23;20037;-79
2024/02/27 11:04:54;;;;;;;5.95;4.35;;;;;;;;;;12810025;23;20001;-79
2024/02/27 11:09:58;;;;;;;12.13;10.50;;;;;;;;;;12813055;23;20007;-80
2024/02/27 11:15:08;;;;;;;6.35;5.03;;;;;;;;;;12812388;23;20019;-79
2024/02/27 11:20:11;;;;;;;6.60;5.28;;;;;;;;;;12817971;23;20009;-79
2024/02/27 11:25:13;;;;;;;5.35;4.53;;;;;;;;;;12826763;23;20015;-79
2024/02/27 11:30:16;;;;;;;13.55;9.93;;;;;;;;;;12813538;23;20032;-79
2024/02/27 11:35:17;;;;;;;10.57;8.43;;;;;;;;;;12816963;23;20323;-79
2024/02/27 11:40:37;;;;;;;7.22;5.70;;;;;;;;;;12820717;23;20292;-78
2024/02/27 11:45:38;;;;;;;5.18;3.72;;;;;;;;;;12816775;23;20043;-80
2024/02/27 11:50:39;;;;;;;8.85;6.50;;;;;;;;;;12814118;23;20009;-79
2024/02/27 11:55:40;;;;;;;8.05;6.45;;;;;;;;;;12816549;23;20076;-79
2024/02/27 12:00:45;;;;;;;6.53;4.63;;;;;;;;;;12811988;23;20016;-80
2024/02/27 12:05:47;;;;;;;8.82;6.88;;;;;;;;;;12814798;23;20091;-80
2024/02/27 12:10:48;;;;;;;5.70;4.53;;;;;;;;;;12811555;23;20005;-79
2024/02/27 12:15:56;;;;;;;7.47;5.38;;;;;;;;;;12812594;23;20063;-79
2024/02/27 12:21:00;;;;;;;8.77;7.20;;;;;;;;;;12812308;23;20534;-78
2024/02/27 12:26:02;;;;;;;8.00;6.65;;;;;;;;;;12810185;23;20435;-79
2024/02/27 12:31:04;;;;;;;5.95;5.00;;;;;;;;;;12809243;23;20011;-80
2024/02/27 12:36:05;;;;;;;9.05;5.88;;;;;;;;;;12815142;23;20072;-78
2024/02/27 12:41:07;;;;;;;6.93;4.82;;;;;;;;;;12814877;23;20005;-79
2024/02/27 12:46:08;;;;;;;32.60;27.88;;;;;;;;;;12812478;23;20060;-78
2024/02/27 12:51:11;;;;;;;10.95;9.25;;;;;;;;;;12813048;23;20005;-79
2024/02/27 12:56:15;;;;;;;6.15;4.93;;;;;;;;;;12813252;23;20403;-78
2024/02/27 13:01:16;;;;;;;8.23;5.93;;;;;;;;;;12812319;23;20016;-79
2024/02/27 13:06:17;;;;;;;;;;;;;;;;;;12811103;23;20016;-79
2024/02/27 13:11:19;;;;;;;9.93;7.88;;;;;;;;;;12811101;23;19995;-78
2024/02/27 13:16:21;;;;;;;8.63;7.10;;;;;;;;;;12811981;23;20517;-79
2024/02/27 13:21:22;;;;;;;;;;;;;;;;;;12812669;23;20011;-79
2024/02/27 13:26:23;;;;;;;8.48;6.90;;;;;;;;;;12809496;23;19977;-79
2024/02/27 13:31:25;;;;;;;10.85;8.68;;;;;;;;;;12808288;23;20451;-79
2024/02/27 13:36:26;;;;;;;11.27;9.65;;;;;;;;;;12812572;23;20031;-79
2024/02/27 13:41:27;;;;;;;11.55;8.50;;;;;;;;;;12802682;23;20009;-77
2024/02/27 13:46:28;;;;;;;13.50;10.98;;;;;;;;;;12803139;23;20009;-79
2024/02/27 13:51:29;;;;;;;14.88;11.07;;;;;;;;;;12816720;23;20001;-76
2024/02/27 13:56:30;;;;;;;;;;;;;;;;;;12815713;23;20069;-77
2024/02/27 14:01:32;;;;;;;7.60;5.90;;;;;;;;;;12806996;23;19901;-79
2024/02/27 14:06:33;;;;;;;6.57;4.90;;;;;;;;;;12808654;23;20005;-79
2024/02/27 14:11:34;;;;;;;;;;;;;;;;;;12805247;23;20008;-77
2024/02/27 14:16:59;;;;;;;8.85;5.95;;;;;;;;;;12751686;23;19924;-84
2024/02/27 14:22:07;;;;;;;10.77;6.63;;;;;;;;;;12672814;23;20030;-83
2024/02/27 14:27:43;;;;;;;5.70;4.05;;;;;;;;;;12734745;23;20006;-83
2024/02/27 14:33:03;;;;;;;4.80;3.38;;;;;;;;;;12735485;23;20270;-83
2024/02/27 14:38:36;;;;;;;5.35;3.85;;;;;;;;;;12759948;23;20082;-86
2024/02/27 14:44:25;;;;;;;13.32;10.43;;;;;;;;;;12731831;23;20032;-86
2024/02/27 15:24:46;;;;;;;8.30;6.05;;;;;;;;;;12513213;23;20086;-86
2024/02/27 15:29:48;;;;;;;6.53;4.25;;;;;;;;;;12523268;23;20023;-85
2024/02/27 15:34:57;;;;;;;;;;;;;;;;;;12692044;23;20020;-85
2024/02/27 15:40:13;;;;;;;6.20;5.05;;;;;;;;;;12727541;23;19912;-83
2024/02/27 15:45:17;;;;;;;8.80;5.55;;;;;;;;;;12756621;23;20025;-85
2024/02/27 15:50:38;;;;;;;7.38;4.80;;;;;;;;;;12753234;23;20038;-86
2024/02/27 15:55:58;;;;;;;10.23;7.72;;;;;;;;;;12752302;23;20005;-86
2024/02/27 16:01:19;;;;;;;7.85;6.30;;;;;;;;;;12758505;23;20013;-84
2024/02/27 16:07:03;;;;;;;10.95;8.85;;;;;;;;;;12765994;23;20010;-84
2024/02/27 16:18:20;;;;;;;7.70;5.05;;;;;;;;;;12562635;23;20006;-85
2024/02/27 16:23:25;;;;;;;6.53;4.28;;;;;;;;;;12567071;23;20333;-85
2024/02/27 16:34:37;;;;;;;6.88;4.95;;;;;;;;;;12564911;23;20010;-86
2024/02/27 16:57:06;;;;;;;14.40;11.32;;;;;;;;;;12588921;23;20003;-84
2024/02/27 17:19:44;;;;;;;7.25;5.28;;;;;;;;;;12569095;23;20076;-84
2024/02/27 17:24:59;;;;;;;8.93;6.85;;;;;;;;;;12540282;23;20098;-86
2024/02/27 17:30:02;;;;;;;7.90;4.57;;;;;;;;;;12544352;23;20466;-86
2024/02/27 18:03:35;;;;;;;14.95;10.85;;;;;;;;;;12501986;23;20003;-86
2024/02/27 18:14:19;;;;;;;8.48;5.85;;;;;;;;;;12496572;23;20509;-86
2024/02/27 18:25:28;;;;;;;15.05;10.30;;;;;;;;;;12749985;23;20009;-86
2024/02/27 18:41:52;;;;;;;6.18;4.50;;;;;;;;;;12766999;23;20021;-86
2024/02/27 18:58:08;;;;;;;6.63;5.15;;;;;;;;;;12743520;23;20014;-87
2024/02/27 19:20:26;;;;;;;;;;;;;;;;;;12571442;23;20011;-86
2024/02/27 19:48:31;;;;;;;6.30;5.03;;;;;;;;;;12577067;23;20115;-86
2024/02/27 19:53:40;;;;;;;6.57;5.00;;;;;;;;;;12538633;23;20011;-85
2024/02/27 19:58:46;;;;;;;5.38;4.53;;;;;;;;;;12537468;23;20007;-86
2024/02/27 20:03:53;;;;;;;6.10;5.22;;;;;;;;;;12757848;23;19997;-86
